Time;durP1;ratioP1;P1;durP2;ratioP2;P2;SDS_P1;SDS_P2;PMS_P1;PMS_P2;Temp;Humidity;BMP_temperature;BMP_pressure;BME280_temperature;BME280_humidity;BME280_pressure;Samples;Min_cycle;Max_cycle;Signal;HPM_P1;HPM_P2
2021/12/01 00:00:37;;;;;;;2.60;0.80;;;;;;;;;;5144875;27;20028;-74
2021/12/01 00:03:03;;;;;;;0.85;0.55;;;;;;;;;;5143625;27;20027;-74
2021/12/01 00:05:30;;;;;;;1.55;0.60;;;;;;;;;;5123120;27;20038;-73
2021/12/01 00:07:57;;;;;;;1.42;0.60;;;;;;;;;;5141465;27;20037;-73
2021/12/01 00:10:25;;;;;;;1.17;0.73;;;;;;;;;;5125303;27;20055;-73
2021/12/01 00:12:51;;;;;;;1.08;0.73;;;;;;;;;;5143303;27;20106;-74
2021/12/01 00:15:18;;;;;;;3.28;0.63;;;;;;;;;;5126968;27;20542;-74
2021/12/01 00:17:44;;;;;;;1.25;0.60;;;;;;;;;;5144658;27;20015;-75
2021/12/01 00:20:11;;;;;;;3.08;0.75;;;;;;;;;;5140076;27;20030;-75
2021/12/01 00:22:37;;;;;;;2.90;0.82;;;;;;;;;;5125241;27;20041;-75
2021/12/01 00:25:04;;;;;;;0.70;0.55;;;;;;;;;;5143933;27;20023;-75
2021/12/01 00:27:30;;;;;;;1.50;0.73;;;;;;;;;;5123212;27;20087;-75
2021/12/01 00:29:57;;;;;;;1.30;0.68;;;;;;;;;;5143329;27;20015;-75
2021/12/01 00:32:22;;;;;;;6.28;1.20;;;;;;;;;;5122550;27;20023;-74
2021/12/01 00:34:48;;;;;;;1.17;0.63;;;;;;;;;;5140965;27;20027;-75
2021/12/01 00:37:14;;;;;;;1.73;0.80;;;;;;;;;;5142201;27;20566;-76
2021/12/01 00:39:39;;;;;;;1.33;0.60;;;;;;;;;;5141735;27;20054;-75
2021/12/01 00:42:06;;;;;;;1.23;0.80;;;;;;;;;;5140384;27;20060;-75
2021/12/01 00:44:34;;;;;;;1.60;1.25;;;;;;;;;;5141206;27;20048;-74
2021/12/01 00:49:30;;;;;;;1.15;0.75;;;;;;;;;;5142024;27;20039;-73
2021/12/01 00:51:55;;;;;;;1.70;0.70;;;;;;;;;;5141345;27;20078;-74
2021/12/01 00:54:21;;;;;;;1.92;0.80;;;;;;;;;;5124764;27;20055;-74
2021/12/01 00:56:49;;;;;;;1.15;0.50;;;;;;;;;;5142415;27;20027;-74
2021/12/01 00:59:15;;;;;;;2.45;0.80;;;;;;;;;;5123101;27;20662;-73
2021/12/01 01:01:42;;;;;;;1.55;0.70;;;;;;;;;;5123060;27;20034;-74
2021/12/01 01:04:07;;;;;;;1.60;0.70;;;;;;;;;;5123147;27;20031;-74
2021/12/01 01:06:33;;;;;;;0.90;0.60;;;;;;;;;;5142201;27;20076;-75
2021/12/01 01:09:00;;;;;;;1.08;0.70;;;;;;;;;;5143696;27;20689;-74
2021/12/01 01:16:54;;;;;;;0.60;0.50;;;;;;;;;;5140942;27;20058;-74
2021/12/01 01:19:20;;;;;;;2.13;0.80;;;;;;;;;;5140340;27;20031;-75
2021/12/01 01:21:50;;;;;;;2.60;0.70;;;;;;;;;;5123588;27;20694;-74
2021/12/01 01:24:17;;;;;;;0.63;0.40;;;;;;;;;;5144423;27;20029;-74
2021/12/01 01:26:43;;;;;;;0.95;0.60;;;;;;;;;;5125589;27;20027;-74
2021/12/01 01:29:09;;;;;;;1.20;0.70;;;;;;;;;;5125861;27;20093;-74
2021/12/01 01:31:36;;;;;;;1.10;0.60;;;;;;;;;;5125105;27;20031;-74
2021/12/01 01:34:03;;;;;;;1.45;0.65;;;;;;;;;;5143831;27;20042;-73
2021/12/01 01:36:29;;;;;;;0.98;0.70;;;;;;;;;;5125156;27;20039;-74
2021/12/01 01:38:56;;;;;;;3.63;0.80;;;;;;;;;;5126111;27;20038;-74
2021/12/01 01:41:21;;;;;;;0.75;0.63;;;;;;;;;;5142952;27;20034;-74
2021/12/01 01:43:50;;;;;;;1.77;0.80;;;;;;;;;;5125426;27;20034;-75
2021/12/01 01:46:17;;;;;;;0.90;0.50;;;;;;;;;;5124479;27;20102;-73
2021/12/01 01:48:49;;;;;;;1.00;0.63;;;;;;;;;;5144429;27;20031;-74
2021/12/01 01:51:25;;;;;;;1.10;0.63;;;;;;;;;;5121889;28;20043;-75
2021/12/01 01:53:54;;;;;;;4.60;0.93;;;;;;;;;;5118552;28;20091;-74
2021/12/01 01:56:21;;;;;;;0.77;0.60;;;;;;;;;;5123164;28;20510;-73
2021/12/01 01:58:47;;;;;;;1.67;0.60;;;;;;;;;;5123788;28;20387;-73
2021/12/01 02:01:58;;;;;;;1.27;0.70;;;;;;;;;;5122700;28;20098;-74
2021/12/01 02:04:05;;;;;;;2.03;0.70;;;;;;;;;;5117257;28;20040;-73
2021/12/01 02:06:32;;;;;;;1.45;0.70;;;;;;;;;;5122990;28;20051;-74
2021/12/01 02:08:58;;;;;;;2.38;0.57;;;;;;;;;;5120472;28;20027;-73
2021/12/01 02:11:27;;;;;;;1.45;0.68;;;;;;;;;;5122299;28;20035;-73
2021/12/01 02:13:53;;;;;;;0.77;0.70;;;;;;;;;;5126243;28;20028;-73
2021/12/01 02:16:20;;;;;;;2.60;0.50;;;;;;;;;;5127354;28;20027;-74
2021/12/01 02:18:46;;;;;;;1.10;0.68;;;;;;;;;;5127279;28;20114;-73
2021/12/01 02:21:13;;;;;;;1.10;0.80;;;;;;;;;;5113935;28;20095;-74
2021/12/01 02:23:43;;;;;;;1.90;0.70;;;;;;;;;;5127166;28;20057;-74
2021/12/01 02:26:10;;;;;;;1.10;0.80;;;;;;;;;;5126447;28;20091;-73
2021/12/01 02:28:36;;;;;;;0.85;0.50;;;;;;;;;;5124188;28;20028;-74
2021/12/01 02:31:02;;;;;;;0.77;0.50;;;;;;;;;;5123206;28;20063;-74
2021/12/01 02:33:28;;;;;;;0.88;0.70;;;;;;;;;;5124368;28;20035;-74
2021/12/01 02:35:54;;;;;;;0.73;0.50;;;;;;;;;;5119102;28;20497;-73
2021/12/01 02:38:20;;;;;;;1.08;0.60;;;;;;;;;;5122497;28;20051;-75
2021/12/01 02:40:46;;;;;;;0.52;0.45;;;;;;;;;;5122100;28;20028;-73
2021/12/01 02:43:12;;;;;;;0.90;0.50;;;;;;;;;;5124588;28;20024;-74
2021/12/01 02:45:39;;;;;;;0.80;0.60;;;;;;;;;;5121068;28;20034;-75
2021/12/01 02:48:06;;;;;;;1.80;0.55;;;;;;;;;;5122988;28;20031;-74
2021/12/01 02:50:32;;;;;;;1.23;0.68;;;;;;;;;;5126232;27;20862;-73
2021/12/01 02:52:58;;;;;;;1.02;0.50;;;;;;;;;;5144120;27;21151;-75
2021/12/01 02:55:27;;;;;;;1.13;0.60;;;;;;;;;;5142998;27;20031;-75
2021/12/01 02:57:53;;;;;;;0.82;0.40;;;;;;;;;;5142833;27;20023;-74
2021/12/01 03:00:22;;;;;;;1.00;0.25;;;;;;;;;;5143167;27;20031;-73
2021/12/01 03:02:48;;;;;;;2.72;0.85;;;;;;;;;;5143187;27;20029;-74
2021/12/01 03:05:15;;;;;;;1.23;0.50;;;;;;;;;;5143705;27;20102;-73
2021/12/01 03:07:42;;;;;;;1.50;0.45;;;;;;;;;;5143398;27;20522;-74
2021/12/01 03:10:08;;;;;;;0.93;0.63;;;;;;;;;;5142850;27;20087;-74
2021/12/01 03:12:38;;;;;;;1.23;0.47;;;;;;;;;;5143728;27;20063;-74
2021/12/01 03:15:07;;;;;;;0.52;0.45;;;;;;;;;;5142418;27;20472;-74
2021/12/01 03:17:33;;;;;;;0.75;0.60;;;;;;;;;;5124910;27;20080;-74
2021/12/01 03:19:59;;;;;;;1.10;0.45;;;;;;;;;;5123996;27;20026;-74
2021/12/01 03:22:26;;;;;;;2.38;0.68;;;;;;;;;;5142692;27;20069;-74
2021/12/01 03:24:52;;;;;;;0.68;0.60;;;;;;;;;;5141960;27;20048;-74
2021/12/01 03:27:18;;;;;;;0.45;0.40;;;;;;;;;;5142907;27;20030;-74
2021/12/01 03:29:48;;;;;;;0.68;0.50;;;;;;;;;;5142841;27;20038;-72
2021/12/01 03:32:15;;;;;;;1.38;0.35;;;;;;;;;;5143109;27;20037;-73
2021/12/01 03:34:42;;;;;;;0.80;0.40;;;;;;;;;;5125050;27;20035;-73
2021/12/01 03:37:08;;;;;;;1.77;0.50;;;;;;;;;;5142017;27;20054;-74
2021/12/01 03:39:35;;;;;;;0.40;0.40;;;;;;;;;;5140776;27;20031;-74
2021/12/01 03:42:05;;;;;;;3.20;0.40;;;;;;;;;;5123151;27;20122;-75
2021/12/01 03:44:31;;;;;;;0.93;0.40;;;;;;;;;;5124950;27;20048;-72
2021/12/01 03:46:57;;;;;;;2.50;0.60;;;;;;;;;;5142697;27;20030;-74
2021/12/01 03:49:23;;;;;;;0.43;0.32;;;;;;;;;;5142527;27;20026;-74
2021/12/01 03:51:48;;;;;;;1.17;0.60;;;;;;;;;;5144178;27;20047;-73
2021/12/01 03:54:14;;;;;;;1.35;0.40;;;;;;;;;;5125836;27;20030;-74
2021/12/01 03:56:39;;;;;;;1.70;0.30;;;;;;;;;;5126553;27;20027;-74
2021/12/01 03:59:05;;;;;;;0.75;0.50;;;;;;;;;;5145432;27;20027;-73
2021/12/01 04:01:32;;;;;;;1.95;0.50;;;;;;;;;;5126882;27;20446;-75
2021/12/01 04:03:58;;;;;;;0.70;0.40;;;;;;;;;;5145857;27;20127;-73
2021/12/01 04:06:27;;;;;;;1.95;0.80;;;;;;;;;;5145473;27;20514;-73
2021/12/01 04:08:53;;;;;;;1.00;0.50;;;;;;;;;;5146837;27;20026;-74
2021/12/01 04:11:19;;;;;;;2.15;0.80;;;;;;;;;;5145987;27;20031;-73
2021/12/01 04:13:45;;;;;;;0.90;0.30;;;;;;;;;;5127920;27;20023;-74
2021/12/01 04:16:11;;;;;;;0.95;0.50;;;;;;;;;;5145545;27;20656;-74
2021/12/01 04:18:37;;;;;;;1.40;0.45;;;;;;;;;;5146307;27;20527;-73
2021/12/01 04:21:03;;;;;;;1.55;0.50;;;;;;;;;;5127709;27;20023;-74
2021/12/01 04:23:30;;;;;;;0.52;0.50;;;;;;;;;;5145907;27;20073;-72
2021/12/01 04:25:57;;;;;;;0.90;0.52;;;;;;;;;;5144978;27;20023;-72
2021/12/01 04:28:23;;;;;;;0.73;0.40;;;;;;;;;;5126925;27;20030;-72
2021/12/01 04:30:48;;;;;;;0.63;0.52;;;;;;;;;;5126961;27;20064;-73
2021/12/01 04:33:14;;;;;;;1.20;0.65;;;;;;;;;;5145699;27;20027;-74
2021/12/01 04:35:40;;;;;;;0.95;0.70;;;;;;;;;;5144623;27;20027;-73
2021/12/01 04:38:06;;;;;;;0.90;0.60;;;;;;;;;;5145434;27;20079;-73
2021/12/01 04:40:32;;;;;;;1.45;0.50;;;;;;;;;;5144805;27;20097;-73
2021/12/01 04:42:57;;;;;;;0.35;0.35;;;;;;;;;;5144832;27;20078;-73
2021/12/01 04:45:25;;;;;;;0.68;0.60;;;;;;;;;;5126404;27;20027;-72
2021/12/01 04:47:53;;;;;;;2.08;0.55;;;;;;;;;;5124276;27;20023;-73
2021/12/01 04:50:21;;;;;;;0.82;0.50;;;;;;;;;;5143861;27;20238;-72
2021/12/01 04:52:47;;;;;;;0.40;0.40;;;;;;;;;;5144618;27;20039;-74
2021/12/01 04:55:13;;;;;;;0.40;0.40;;;;;;;;;;5144405;27;20019;-73
2021/12/01 04:57:45;;;;;;;0.50;0.45;;;;;;;;;;5145324;27;20035;-73
2021/12/01 05:00:15;;;;;;;0.57;0.40;;;;;;;;;;5144920;27;20019;-73
2021/12/01 05:02:40;;;;;;;1.80;0.70;;;;;;;;;;5145725;27;20038;-72
2021/12/01 05:05:06;;;;;;;0.55;0.47;;;;;;;;;;5126413;27;20439;-73
2021/12/01 05:07:33;;;;;;;0.60;0.40;;;;;;;;;;5145575;27;20034;-72
2021/12/01 05:09:58;;;;;;;2.45;0.40;;;;;;;;;;5145124;27;20707;-73
2021/12/01 05:12:24;;;;;;;2.63;0.60;;;;;;;;;;5143588;27;20027;-73
2021/12/01 05:14:50;;;;;;;0.82;0.52;;;;;;;;;;5145552;27;20109;-73
2021/12/01 05:17:17;;;;;;;0.55;0.55;;;;;;;;;;5141761;27;20035;-73
2021/12/01 05:19:43;;;;;;;0.68;0.50;;;;;;;;;;5133455;27;20034;-74
2021/12/01 05:22:09;;;;;;;2.25;0.50;;;;;;;;;;5125505;27;20019;-72
2021/12/01 05:24:35;;;;;;;0.40;0.40;;;;;;;;;;5144760;27;20027;-74
2021/12/01 05:27:04;;;;;;;1.05;0.70;;;;;;;;;;5143833;27;20022;-75
2021/12/01 05:29:30;;;;;;;1.35;0.60;;;;;;;;;;5126099;27;20090;-73
2021/12/01 05:31:56;;;;;;;0.40;0.40;;;;;;;;;;5144341;27;20034;-73
2021/12/01 05:34:23;;;;;;;1.08;0.60;;;;;;;;;;5142813;27;20106;-73
2021/12/01 05:36:49;;;;;;;0.43;0.30;;;;;;;;;;5136850;27;20019;-73
2021/12/01 05:39:16;;;;;;;0.88;0.50;;;;;;;;;;5143058;27;20050;-72
2021/12/01 05:41:42;;;;;;;0.50;0.43;;;;;;;;;;5134527;27;20057;-73
2021/12/01 05:44:08;;;;;;;21.63;10.30;;;;;;;;;;5137652;27;20078;-73
2021/12/01 05:46:34;;;;;;;17.52;7.80;;;;;;;;;;5143018;27;20042;-73
2021/12/01 05:48:59;;;;;;;16.77;5.97;;;;;;;;;;5117100;27;20035;-73
2021/12/01 05:51:25;;;;;;;14.05;4.00;;;;;;;;;;5143307;27;20067;-73
2021/12/01 05:53:51;;;;;;;7.40;1.98;;;;;;;;;;5143229;28;20035;-73
2021/12/01 05:56:16;;;;;;;4.47;1.35;;;;;;;;;;5143446;28;20027;-73
2021/12/01 05:58:42;;;;;;;5.88;1.33;;;;;;;;;;5127252;28;20053;-73
2021/12/01 06:01:08;;;;;;;4.47;0.70;;;;;;;;;;5113294;28;20028;-73
2021/12/01 06:03:34;;;;;;;1.88;0.63;;;;;;;;;;5125135;28;20150;-73
2021/12/01 06:06:00;;;;;;;2.35;0.52;;;;;;;;;;5121351;28;20102;-73
2021/12/01 06:08:26;;;;;;;0.80;0.50;;;;;;;;;;5140591;28;20030;-73
2021/12/01 06:10:51;;;;;;;0.32;0.30;;;;;;;;;;5122847;28;20027;-73
2021/12/01 06:13:18;;;;;;;1.08;0.55;;;;;;;;;;5125674;28;20035;-74
2021/12/01 06:15:53;;;;;;;0.60;0.50;;;;;;;;;;5143937;28;20065;-73
2021/12/01 06:18:19;;;;;;;2.00;0.88;;;;;;;;;;5124846;28;20030;-74
2021/12/01 06:20:45;;;;;;;2.17;0.70;;;;;;;;;;5140669;28;20037;-74
2021/12/01 06:23:10;;;;;;;2.15;0.50;;;;;;;;;;5143542;28;20027;-73
2021/12/01 06:25:36;;;;;;;3.03;0.40;;;;;;;;;;5143972;28;20023;-73
2021/12/01 06:28:02;;;;;;;1.58;0.60;;;;;;;;;;5144145;28;20059;-73
2021/12/01 06:30:32;;;;;;;0.82;0.43;;;;;;;;;;5143516;28;20546;-73
2021/12/01 06:32:58;;;;;;;3.88;0.55;;;;;;;;;;5139897;28;20046;-73
2021/12/01 06:35:24;;;;;;;5.30;0.68;;;;;;;;;;5121640;28;20055;-73
2021/12/01 06:37:52;;;;;;;7.13;0.70;;;;;;;;;;5120396;28;20027;-73
2021/12/01 06:40:17;;;;;;;0.70;0.57;;;;;;;;;;5140741;28;20028;-71
2021/12/01 06:42:43;;;;;;;1.02;0.55;;;;;;;;;;5141746;28;20426;-73
2021/12/01 06:45:11;;;;;;;6.55;0.70;;;;;;;;;;5137256;28;20063;-71
2021/12/01 06:47:37;;;;;;;0.93;0.70;;;;;;;;;;5122476;28;20031;-72
2021/12/01 06:50:05;;;;;;;6.65;0.70;;;;;;;;;;5141291;28;20371;-72
2021/12/01 06:52:30;;;;;;;0.77;0.68;;;;;;;;;;5140028;28;20050;-74
2021/12/01 06:54:57;;;;;;;0.57;0.50;;;;;;;;;;5141198;28;20023;-72
2021/12/01 06:57:23;;;;;;;2.15;0.60;;;;;;;;;;5122122;28;20034;-73
2021/12/01 06:59:49;;;;;;;1.83;0.60;;;;;;;;;;5141954;27;20046;-73
2021/12/01 07:02:17;;;;;;;1.13;0.80;;;;;;;;;;5144533;27;20027;-72
2021/12/01 07:04:42;;;;;;;1.50;0.77;;;;;;;;;;5126266;27;20023;-73
2021/12/01 07:07:08;;;;;;;1.75;0.50;;;;;;;;;;5125878;27;20140;-72
2021/12/01 07:09:33;;;;;;;0.43;0.38;;;;;;;;;;5143652;27;20034;-71
2021/12/01 07:12:02;;;;;;;1.92;0.63;;;;;;;;;;5143273;27;20521;-73
2021/12/01 07:14:28;;;;;;;1.13;0.57;;;;;;;;;;5125822;27;20044;-73
2021/12/01 07:16:54;;;;;;;2.53;0.60;;;;;;;;;;5143478;27;20027;-73
2021/12/01 07:19:20;;;;;;;1.60;0.60;;;;;;;;;;5125623;27;20054;-73
2021/12/01 07:21:46;;;;;;;3.38;1.00;;;;;;;;;;5142753;27;20055;-73
2021/12/01 07:24:11;;;;;;;2.90;0.90;;;;;;;;;;5125194;27;20035;-73
2021/12/01 07:26:38;;;;;;;2.88;0.80;;;;;;;;;;5143906;27;20742;-73
2021/12/01 07:29:03;;;;;;;1.17;0.60;;;;;;;;;;5143609;27;20023;-73
2021/12/01 07:31:29;;;;;;;1.02;0.73;;;;;;;;;;5146843;27;20107;-73
2021/12/01 07:33:55;;;;;;;1.05;0.57;;;;;;;;;;5146548;27;20115;-73
2021/12/01 07:36:21;;;;;;;2.58;0.52;;;;;;;;;;5139787;27;20030;-73
2021/12/01 07:38:46;;;;;;;2.42;0.85;;;;;;;;;;5146455;27;20027;-72
2021/12/01 07:41:12;;;;;;;2.15;0.85;;;;;;;;;;5146306;27;20027;-72
2021/12/01 07:43:37;;;;;;;0.47;0.47;;;;;;;;;;5128372;27;20084;-72
2021/12/01 07:46:03;;;;;;;5.13;0.80;;;;;;;;;;5145520;27;20609;-72
2021/12/01 07:48:29;;;;;;;3.50;0.65;;;;;;;;;;5128674;27;20027;-73
2021/12/01 07:50:55;;;;;;;0.82;0.50;;;;;;;;;;5146328;27;20039;-72
2021/12/01 07:53:22;;;;;;;1.05;0.60;;;;;;;;;;5146746;27;20024;-71
2021/12/01 07:55:48;;;;;;;0.70;0.40;;;;;;;;;;5146040;27;20052;-71
2021/12/01 07:58:13;;;;;;;0.73;0.50;;;;;;;;;;5142526;27;20019;-72
2021/12/01 08:00:39;;;;;;;0.47;0.30;;;;;;;;;;5145590;27;20200;-72
2021/12/01 08:03:04;;;;;;;0.60;0.40;;;;;;;;;;5144688;27;20027;-72
2021/12/01 08:05:30;;;;;;;1.42;0.60;;;;;;;;;;5146462;27;20031;-74
2021/12/01 08:07:56;;;;;;;1.20;0.60;;;;;;;;;;5128274;27;20035;-72
2021/12/01 08:10:21;;;;;;;1.27;0.55;;;;;;;;;;5139244;27;20039;-73
2021/12/01 08:12:47;;;;;;;0.77;0.50;;;;;;;;;;5125788;27;20031;-73
2021/12/01 08:15:13;;;;;;;0.63;0.40;;;;;;;;;;5127166;27;20253;-73
2021/12/01 08:17:38;;;;;;;1.27;0.88;;;;;;;;;;5142429;27;20049;-75
2021/12/01 08:20:05;;;;;;;1.48;0.60;;;;;;;;;;5107178;27;20039;-73
2021/12/01 08:22:30;;;;;;;1.02;0.60;;;;;;;;;;5147403;27;20088;-71
2021/12/01 08:24:59;;;;;;;1.40;0.57;;;;;;;;;;5146034;27;20031;-71
2021/12/01 08:27:27;;;;;;;1.75;0.60;;;;;;;;;;5124759;28;20050;-71
2021/12/01 08:29:52;;;;;;;1.35;0.70;;;;;;;;;;5145197;27;20027;-71
2021/12/01 08:32:18;;;;;;;2.78;0.70;;;;;;;;;;5145200;27;20051;-70
2021/12/01 08:34:49;;;;;;;2.00;1.27;;;;;;;;;;5144417;27;20031;-70
2021/12/01 08:37:19;;;;;;;4.68;1.33;;;;;;;;;;5127879;27;20054;-70
2021/12/01 08:39:47;;;;;;;4.05;1.50;;;;;;;;;;5143640;27;20023;-70
2021/12/01 08:42:14;;;;;;;1.17;0.80;;;;;;;;;;5145272;27;20106;-71
2021/12/01 08:44:45;;;;;;;0.60;0.50;;;;;;;;;;5144680;27;20074;-70
2021/12/01 08:47:11;;;;;;;0.90;0.50;;;;;;;;;;5145423;27;20023;-70
2021/12/01 08:49:37;;;;;;;0.98;0.50;;;;;;;;;;5126567;27;20031;-70
2021/12/01 08:52:03;;;;;;;0.88;0.70;;;;;;;;;;5129615;27;20043;-70
2021/12/01 08:54:28;;;;;;;0.47;0.30;;;;;;;;;;5145236;27;20372;-70
2021/12/01 08:56:54;;;;;;;2.92;0.40;;;;;;;;;;5145211;27;20027;-69
2021/12/01 08:59:19;;;;;;;0.55;0.50;;;;;;;;;;5145150;27;20048;-70
2021/12/01 09:01:45;;;;;;;1.58;0.82;;;;;;;;;;5126296;27;20035;-70
2021/12/01 09:04:11;;;;;;;1.73;0.88;;;;;;;;;;5145576;27;20079;-70
2021/12/01 09:06:40;;;;;;;1.35;0.60;;;;;;;;;;5144404;27;20035;-70
2021/12/01 09:09:05;;;;;;;1.88;0.65;;;;;;;;;;5144350;27;20050;-70
2021/12/01 09:11:30;;;;;;;1.05;0.50;;;;;;;;;;5142642;27;20099;-70
2021/12/01 09:13:56;;;;;;;2.33;0.38;;;;;;;;;;5144989;27;20048;-70
2021/12/01 09:16:22;;;;;;;1.05;0.50;;;;;;;;;;5121077;27;20420;-70
2021/12/01 09:18:48;;;;;;;0.60;0.32;;;;;;;;;;5135202;27;20106;-70
2021/12/01 09:21:13;;;;;;;0.55;0.38;;;;;;;;;;5140907;27;20533;-70
2021/12/01 09:23:39;;;;;;;1.08;0.40;;;;;;;;;;5125138;27;20117;-71
2021/12/01 09:26:05;;;;;;;3.10;0.57;;;;;;;;;;5143334;27;20027;-71
2021/12/01 09:28:30;;;;;;;1.27;0.30;;;;;;;;;;5144809;27;20093;-72
2021/12/01 09:30:57;;;;;;;0.45;0.38;;;;;;;;;;5143695;27;20072;-73
2021/12/01 09:33:23;;;;;;;0.50;0.40;;;;;;;;;;5144371;27;20031;-73
2021/12/01 09:35:51;;;;;;;0.70;0.50;;;;;;;;;;5126171;27;20034;-72
2021/12/01 09:38:18;;;;;;;0.52;0.30;;;;;;;;;;5145383;27;20106;-73
2021/12/01 09:40:47;;;;;;;0.65;0.30;;;;;;;;;;5125859;27;20476;-73
2021/12/01 09:43:15;;;;;;;0.57;0.30;;;;;;;;;;5144579;27;20041;-73
2021/12/01 09:45:41;;;;;;;0.43;0.43;;;;;;;;;;5143735;27;20061;-73
2021/12/01 09:48:21;;;;;;;0.55;0.40;;;;;;;;;;5142956;27;20027;-70
2021/12/01 09:50:50;;;;;;;0.95;0.47;;;;;;;;;;5123517;28;20071;-71
2021/12/01 09:53:15;;;;;;;1.05;0.40;;;;;;;;;;5126285;28;20033;-70
2021/12/01 09:55:41;;;;;;;0.35;0.30;;;;;;;;;;5144040;28;20035;-70
2021/12/01 09:58:17;;;;;;;0.77;0.50;;;;;;;;;;5144327;28;20023;-74
2021/12/01 10:00:54;;;;;;;0.47;0.40;;;;;;;;;;5144189;28;20039;-73
2021/12/01 10:03:23;;;;;;;4.25;0.50;;;;;;;;;;5141945;28;20027;-71
2021/12/01 10:05:50;;;;;;;1.20;0.57;;;;;;;;;;5115199;28;20080;-72
2021/12/01 10:08:25;;;;;;;1.52;0.30;;;;;;;;;;5120205;28;20023;-73
2021/12/01 10:10:52;;;;;;;0.50;0.50;;;;;;;;;;5144162;28;20061;-73
2021/12/01 10:13:49;;;;;;;0.40;0.40;;;;;;;;;;5144039;28;20020;-72
2021/12/01 10:16:20;;;;;;;0.70;0.50;;;;;;;;;;5143254;27;20035;-74
2021/12/01 10:18:53;;;;;;;0.70;0.45;;;;;;;;;;5131512;28;20088;-73
2021/12/01 10:21:56;;;;;;;1.00;0.77;;;;;;;;;;5105767;28;20023;-71
2021/12/01 10:24:28;;;;;;;1.10;0.63;;;;;;;;;;5078664;28;20043;-72
2021/12/01 10:27:12;;;;;;;0.88;0.73;;;;;;;;;;5131741;28;20050;-73
2021/12/01 10:29:48;;;;;;;0.68;0.60;;;;;;;;;;5123876;28;20039;-73
2021/12/01 10:32:18;;;;;;;0.80;0.50;;;;;;;;;;5119078;28;20055;-73
2021/12/01 10:34:52;;;;;;;1.00;0.70;;;;;;;;;;5128621;27;20025;-72
2021/12/01 10:37:28;;;;;;;6.32;0.50;;;;;;;;;;5146715;27;20023;-71
2021/12/01 10:40:20;;;;;;;1.45;0.60;;;;;;;;;;5128444;27;20027;-71
2021/12/01 10:42:59;;;;;;;0.70;0.45;;;;;;;;;;5109059;28;20031;-72
2021/12/01 10:45:38;;;;;;;0.73;0.50;;;;;;;;;;5118891;27;20031;-72
2021/12/01 10:48:09;;;;;;;1.30;0.50;;;;;;;;;;5146653;27;20035;-72
2021/12/01 10:50:40;;;;;;;1.10;0.50;;;;;;;;;;5144090;27;20043;-71
2021/12/01 10:53:07;;;;;;;1.10;0.40;;;;;;;;;;5146435;27;20027;-71
2021/12/01 10:55:34;;;;;;;0.38;0.38;;;;;;;;;;5147367;27;20027;-72
2021/12/01 10:58:08;;;;;;;2.47;0.60;;;;;;;;;;5147436;27;20030;-71
2021/12/01 11:00:43;;;;;;;3.90;0.55;;;;;;;;;;5147160;27;20124;-73
2021/12/01 11:03:16;;;;;;;0.73;0.43;;;;;;;;;;5123000;27;20026;-73
2021/12/01 11:05:43;;;;;;;0.63;0.50;;;;;;;;;;5140700;27;20051;-72
2021/12/01 11:08:29;;;;;;;1.02;0.57;;;;;;;;;;5147639;27;20030;-73
2021/12/01 11:11:09;;;;;;;0.30;0.30;;;;;;;;;;5146502;27;20026;-71
2021/12/01 11:13:37;;;;;;;2.20;0.50;;;;;;;;;;5147236;27;20088;-73
2021/12/01 11:16:08;;;;;;;1.95;0.50;;;;;;;;;;5127790;27;20031;-73
2021/12/01 11:18:38;;;;;;;2.40;0.50;;;;;;;;;;5146023;27;20031;-72
2021/12/01 11:21:12;;;;;;;0.52;0.50;;;;;;;;;;5146397;27;20027;-73
2021/12/01 11:23:42;;;;;;;2.13;0.60;;;;;;;;;;5144873;27;20023;-72
2021/12/01 11:26:09;;;;;;;1.02;0.40;;;;;;;;;;5126335;27;20031;-72
2021/12/01 11:28:50;;;;;;;1.75;0.35;;;;;;;;;;5144232;27;20031;-72
2021/12/01 11:31:22;;;;;;;1.13;0.73;;;;;;;;;;5141523;27;20038;-70
2021/12/01 11:33:50;;;;;;;1.30;0.50;;;;;;;;;;5135392;27;20532;-71
2021/12/01 11:36:20;;;;;;;1.35;0.70;;;;;;;;;;5142174;27;20035;-71
2021/12/01 11:38:50;;;;;;;0.60;0.40;;;;;;;;;;5144692;27;20023;-71
2021/12/01 11:41:16;;;;;;;0.73;0.43;;;;;;;;;;5127022;27;20027;-72
2021/12/01 11:43:42;;;;;;;0.80;0.60;;;;;;;;;;5146206;27;20057;-71
2021/12/01 11:46:09;;;;;;;1.65;0.50;;;;;;;;;;5145853;27;20054;-70
2021/12/01 11:48:44;;;;;;;0.95;0.60;;;;;;;;;;5145221;27;20020;-72
2021/12/01 11:51:22;;;;;;;1.73;0.70;;;;;;;;;;5126646;27;20611;-71
2021/12/01 11:53:51;;;;;;;0.90;0.60;;;;;;;;;;5146109;27;20042;-72
2021/12/01 11:56:22;;;;;;;3.60;0.55;;;;;;;;;;5143634;27;20042;-72
2021/12/01 11:58:47;;;;;;;3.65;0.55;;;;;;;;;;5145715;27;20091;-72
2021/12/01 12:01:21;;;;;;;1.45;0.80;;;;;;;;;;5140702;27;20024;-71
2021/12/01 12:04:07;;;;;;;2.60;0.80;;;;;;;;;;5143239;27;20035;-71
2021/12/01 12:06:35;;;;;;;6.10;1.35;;;;;;;;;;5142231;27;20027;-71
2021/12/01 12:09:22;;;;;;;1.65;0.70;;;;;;;;;;5145715;27;20048;-72
2021/12/01 12:11:49;;;;;;;3.58;1.15;;;;;;;;;;5144080;27;20166;-71
2021/12/01 12:14:18;;;;;;;0.68;0.60;;;;;;;;;;5114852;27;20023;-72
2021/12/01 12:17:07;;;;;;;1.77;0.60;;;;;;;;;;5145655;27;20035;-72
2021/12/01 12:19:51;;;;;;;1.90;0.70;;;;;;;;;;5126623;27;20686;-73
2021/12/01 12:22:38;;;;;;;;;;;;;;;;;;5125623;27;20039;-72
2021/12/01 12:25:09;;;;;;;1.63;0.70;;;;;;;;;;5138455;27;19915;-71
2021/12/01 12:27:39;;;;;;;1.48;0.73;;;;;;;;;;5127029;27;20038;-72
2021/12/01 12:30:09;;;;;;;1.05;0.68;;;;;;;;;;5145080;27;20089;-73
2021/12/01 12:32:36;;;;;;;0.80;0.52;;;;;;;;;;5144741;27;20030;-71
2021/12/01 12:35:06;;;;;;;1.20;0.70;;;;;;;;;;5143543;27;20292;-73
2021/12/01 12:37:33;;;;;;;2.60;0.80;;;;;;;;;;5142161;27;20016;-71
2021/12/01 12:40:00;;;;;;;2.35;0.80;;;;;;;;;;5128998;27;20030;-72
2021/12/01 12:42:28;;;;;;;2.28;0.82;;;;;;;;;;5116537;27;20020;-73
2021/12/01 12:44:56;;;;;;;1.88;0.82;;;;;;;;;;5126526;27;20053;-73
2021/12/01 12:47:36;;;;;;;3.25;0.90;;;;;;;;;;5142618;27;20023;-73
2021/12/01 12:50:23;;;;;;;1.05;0.80;;;;;;;;;;5146246;27;20037;-73
2021/12/01 12:52:49;;;;;;;6.60;1.08;;;;;;;;;;5124702;28;20040;-73
2021/12/01 12:55:23;;;;;;;3.75;0.95;;;;;;;;;;5123970;28;20038;-73
2021/12/01 12:57:57;;;;;;;2.95;0.80;;;;;;;;;;5123621;28;20031;-72
2021/12/01 13:00:25;;;;;;;2.03;0.80;;;;;;;;;;5124459;28;20058;-73
2021/12/01 13:02:53;;;;;;;2.10;0.80;;;;;;;;;;5122061;28;20122;-73
2021/12/01 13:05:34;;;;;;;1.58;0.90;;;;;;;;;;5120731;28;20025;-72
2021/12/01 13:08:23;;;;;;;2.90;0.82;;;;;;;;;;5122892;28;20024;-72
2021/12/01 13:10:48;;;;;;;3.22;1.08;;;;;;;;;;5123146;28;20083;-73
2021/12/01 13:13:18;;;;;;;2.55;1.10;;;;;;;;;;5121882;28;20064;-74
2021/12/01 13:15:52;;;;;;;2.42;1.10;;;;;;;;;;5122492;28;20110;-73
2021/12/01 13:18:20;;;;;;;1.98;0.90;;;;;;;;;;5124137;28;20031;-71
2021/12/01 13:21:01;;;;;;;2.60;1.00;;;;;;;;;;5123566;28;20115;-72
2021/12/01 13:23:31;;;;;;;1.27;0.60;;;;;;;;;;5124104;28;20040;-73
2021/12/01 13:26:02;;;;;;;2.15;0.80;;;;;;;;;;5109732;28;20062;-71
2021/12/01 13:28:32;;;;;;;1.58;0.80;;;;;;;;;;5107123;28;20069;-72
2021/12/01 13:31:44;;;;;;;4.95;0.80;;;;;;;;;;5124148;28;20027;-72
2021/12/01 13:34:15;;;;;;;1.88;1.05;;;;;;;;;;5077535;28;20048;-72
2021/12/01 13:36:44;;;;;;;2.22;1.08;;;;;;;;;;5123892;28;20023;-73
2021/12/01 13:39:19;;;;;;;1.42;1.02;;;;;;;;;;5123969;28;20047;-73
2021/12/01 13:41:45;;;;;;;2.40;1.05;;;;;;;;;;5122891;28;20027;-74
2021/12/01 13:44:19;;;;;;;3.60;1.27;;;;;;;;;;5122647;28;20066;-74
2021/12/01 13:46:47;;;;;;;2.22;1.02;;;;;;;;;;5123330;28;20028;-74
2021/12/01 13:49:14;;;;;;;2.08;1.00;;;;;;;;;;5122342;28;20049;-75
2021/12/01 13:51:44;;;;;;;1.60;0.77;;;;;;;;;;5133658;27;20097;-73
2021/12/01 13:54:30;;;;;;;1.25;0.70;;;;;;;;;;5140014;27;20023;-73
2021/12/01 13:57:06;;;;;;;1.33;0.85;;;;;;;;;;5141398;28;20030;-73
2021/12/01 13:59:43;;;;;;;1.30;0.60;;;;;;;;;;5143019;28;20771;-73
2021/12/01 14:02:09;;;;;;;2.65;0.70;;;;;;;;;;5142176;28;20087;-73
2021/12/01 14:04:35;;;;;;;3.25;0.90;;;;;;;;;;5143927;28;20080;-74
2021/12/01 14:07:02;;;;;;;5.53;0.93;;;;;;;;;;5125660;28;20416;-73
2021/12/01 14:09:47;;;;;;;1.65;0.90;;;;;;;;;;5129184;27;20026;-72
2021/12/01 14:12:30;;;;;;;2.08;0.73;;;;;;;;;;5147304;27;20043;-74
2021/12/01 14:14:55;;;;;;;2.67;0.75;;;;;;;;;;5146652;27;20034;-76
2021/12/01 14:17:21;;;;;;;3.17;0.95;;;;;;;;;;5148668;27;20039;-77
2021/12/01 14:19:54;;;;;;;1.98;0.80;;;;;;;;;;5148024;27;20035;-76
2021/12/01 14:22:20;;;;;;;2.83;1.23;;;;;;;;;;5142206;27;20020;-76
2021/12/01 14:24:55;;;;;;;2.17;1.23;;;;;;;;;;5127970;28;20103;-77
2021/12/01 14:27:33;;;;;;;2.85;1.17;;;;;;;;;;5127701;28;20031;-77
2021/12/01 14:30:01;;;;;;;1.98;1.08;;;;;;;;;;5131840;27;20015;-73
2021/12/01 14:32:29;;;;;;;1.75;0.98;;;;;;;;;;5126907;27;20519;-73
2021/12/01 14:35:01;;;;;;;1.08;0.60;;;;;;;;;;5115861;27;20019;-78
2021/12/01 14:37:26;;;;;;;1.65;0.90;;;;;;;;;;5147451;27;20039;-77
2021/12/01 14:40:04;;;;;;;2.60;0.93;;;;;;;;;;5148162;27;20074;-75
2021/12/01 14:42:30;;;;;;;2.50;0.90;;;;;;;;;;5148332;27;20088;-75
2021/12/01 14:45:04;;;;;;;1.92;1.00;;;;;;;;;;5147869;27;20027;-77
2021/12/01 14:47:30;;;;;;;1.85;0.82;;;;;;;;;;5129917;27;20523;-77
2021/12/01 14:49:56;;;;;;;2.17;0.65;;;;;;;;;;5147972;27;20025;-76
2021/12/01 14:52:39;;;;;;;1.33;0.57;;;;;;;;;;5129297;27;20088;-76
2021/12/01 14:55:13;;;;;;;2.10;0.60;;;;;;;;;;5147489;27;20018;-75
2021/12/01 14:57:54;;;;;;;1.55;0.60;;;;;;;;;;5129148;27;20035;-75
2021/12/01 15:00:27;;;;;;;1.70;0.65;;;;;;;;;;5146891;27;20027;-76